Sagittarian — WCY5210 — position and weather

sailwx.info

Track history (hours):
 
Tides and Currents Weather Stations Pressure Air Temp Water Temp Dewpoint Dewpoint Depression Visibility Wind Speed Wind Dir Waves Ship Positions

Sagittarian

More information available from US FCC via Universal Licensing System and Coast Guard Vessel Documentation Center.

Last reported at 2014-Sep-27 23:27 UTC. Time now 2014-Oct-01 00:00 UTC.
Position N 37°46' W 122°23'.

; draft 3 m.

Type: Towing. MMSI: 366969510.

Date/timePositionNaut miles runAvg speedWind from/ knotsBaromVisibWave heightAir tempDewpointWater temp
2014-Sep-27 23:27N 37°46' W 122°23'5 5.4
2014-Sep-27 22:33N 37°51' W 122°24'9 8.5
2014-Sep-27 21:33N 37°60' W 122°25'8 7.9
2014-Sep-27 20:32N 38°04' W 122°16'1 0.5
2014-Sep-27 18:16N 38°04' W 122°14'1 0.0
2014-Sep-26 22:12N 38°04' W 122°13'4 6.1
2014-Sep-26 21:31N 38°03' W 122°19'6 5.7
2014-Sep-26 20:33N 38°00' W 122°24'6 5.8
2014-Sep-26 19:34N 37°55' W 122°27'2 1.8
2014-Sep-26 18:33N 37°53' W 122°25'5 4.6
2014-Sep-26 17:34N 37°49' W 122°28'2 1.7
2014-Sep-26 16:33N 37°49' W 122°31'5 4.6
2014-Sep-26 15:34N 37°49' W 122°25'3 0.1
2014-Sep-25 19:31N 37°46' W 122°23'0 0.1
2014-Sep-25 18:33N 37°46' W 122°23'0 0.1
2014-Sep-25 17:33N 37°47' W 122°23'3 2.6
2014-Sep-25 16:33N 37°49' W 122°23'6 6.4
2014-Sep-25 15:33N 37°55' W 122°25'1 1.5
2014-Sep-25 14:33N 37°55' W 122°26'4 4.2
2014-Sep-25 13:31N 37°59' W 122°26'11 5.1
2014-Sep-25 11:22N 38°04' W 122°13'0 0.0
2014-Sep-24 15:33N 38°04' W 122°13'9 7.2
2014-Sep-24 14:17N 38°00' W 122°24'6 8.8
2014-Sep-24 13:33N 37°54' W 122°25'7 7.5
2014-Sep-24 12:33N 37°46' W 122°23'0 0.0
2014-Sep-22 10:33N 37°46' W 122°23'4 3.7
2014-Sep-22 09:33N 37°50' W 122°24'12 9.8
2014-Sep-22 08:20N 38°02' W 122°22'11 2.3
2014-Sep-22 03:28N 38°02' W 122°08'2 0.1
2014-Sep-21 09:18N 38°03' W 122°11'4 4.5
2014-Sep-21 08:30N 38°03' W 122°06'4 2.7
2014-Sep-21 07:07N 38°03' W 122°11'2 4.2
2014-Sep-21 06:33N 38°04' W 122°14'4 4.2
2014-Sep-21 05:33N 38°03' W 122°19'4 3.9
2014-Sep-21 04:29N 38°01' W 122°24'5 5.1
2014-Sep-21 03:33N 37°56' W 122°26'1 1.4
2014-Sep-21 02:33N 37°55' W 122°25'9 8.7
2014-Sep-21 01:33N 37°47' W 122°23'0 0.0
2014-Sep-20 02:33N 37°46' W 122°23'8 7.7
2014-Sep-20 01:33N 37°54' W 122°24'1 0.9
2014-Sep-20 00:33N 37°55' W 122°25'8 8.3
2014-Sep-19 23:33N 37°46' W 122°23'0 0.0
2014-Sep-19 10:33N 37°46' W 122°23'8 7.9
2014-Sep-19 09:33N 37°54' W 122°26'9 8.5
2014-Sep-19 08:28N 38°03' W 122°21'6 2.1
2014-Sep-19 05:27N 38°04' W 122°13'0 0.0
2014-Sep-18 04:29N 38°03' W 122°13'12 6.2
2014-Sep-18 02:33N 37°58' W 122°26'9 9.3
2014-Sep-18 01:33N 37°49' W 122°23'2 2.5
2014-Sep-18 00:33N 37°46' W 122°23'  
Track history (hours):
 
Tides and Currents Weather Stations Pressure Air Temp Water Temp Dewpoint Dewpoint Depression Visibility Wind Speed Wind Dir Waves Ship Positions

Sagittarian

More information available from US FCC via Universal Licensing System and Coast Guard Vessel Documentation Center.

Last reported at 2014-Sep-27 23:27 UTC. Time now 2014-Oct-01 00:00 UTC.
Position N 37°46' W 122°23'.

; draft 3 m.

Type: Towing. MMSI: 366969510.

Date/timePositionNaut miles runAvg speedWind from/ knotsBaromVisibWave heightAir tempDewpointWater temp
2014-Sep-27 23:27N 37°46' W 122°23'5 5.4
2014-Sep-27 22:33N 37°51' W 122°24'9 8.5
2014-Sep-27 21:33N 37°60' W 122°25'8 7.9
2014-Sep-27 20:32N 38°04' W 122°16'1 0.5
2014-Sep-27 18:16N 38°04' W 122°14'1 0.0
2014-Sep-26 22:12N 38°04' W 122°13'4 6.1
2014-Sep-26 21:31N 38°03' W 122°19'6 5.7
2014-Sep-26 20:33N 38°00' W 122°24'6 5.8
2014-Sep-26 19:34N 37°55' W 122°27'2 1.8
2014-Sep-26 18:33N 37°53' W 122°25'5 4.6
2014-Sep-26 17:34N 37°49' W 122°28'2 1.7
2014-Sep-26 16:33N 37°49' W 122°31'5 4.6
2014-Sep-26 15:34N 37°49' W 122°25'3 0.1
2014-Sep-25 19:31N 37°46' W 122°23'0 0.1
2014-Sep-25 18:33N 37°46' W 122°23'0 0.1
2014-Sep-25 17:33N 37°47' W 122°23'3 2.6
2014-Sep-25 16:33N 37°49' W 122°23'6 6.4
2014-Sep-25 15:33N 37°55' W 122°25'1 1.5
2014-Sep-25 14:33N 37°55' W 122°26'4 4.2
2014-Sep-25 13:31N 37°59' W 122°26'11 5.1
2014-Sep-25 11:22N 38°04' W 122°13'0 0.0
2014-Sep-24 15:33N 38°04' W 122°13'9 7.2
2014-Sep-24 14:17N 38°00' W 122°24'6 8.8
2014-Sep-24 13:33N 37°54' W 122°25'7 7.5
2014-Sep-24 12:33N 37°46' W 122°23'0 0.0
2014-Sep-22 10:33N 37°46' W 122°23'4 3.7
2014-Sep-22 09:33N 37°50' W 122°24'12 9.8
2014-Sep-22 08:20N 38°02' W 122°22'11 2.3
2014-Sep-22 03:28N 38°02' W 122°08'2 0.1
2014-Sep-21 09:18N 38°03' W 122°11'4 4.5
2014-Sep-21 08:30N 38°03' W 122°06'4 2.7
2014-Sep-21 07:07N 38°03' W 122°11'2 4.2
2014-Sep-21 06:33N 38°04' W 122°14'4 4.2
2014-Sep-21 05:33N 38°03' W 122°19'4 3.9
2014-Sep-21 04:29N 38°01' W 122°24'5 5.1
2014-Sep-21 03:33N 37°56' W 122°26'1 1.4
2014-Sep-21 02:33N 37°55' W 122°25'9 8.7
2014-Sep-21 01:33N 37°47' W 122°23'0 0.0
2014-Sep-20 02:33N 37°46' W 122°23'8 7.7
2014-Sep-20 01:33N 37°54' W 122°24'1 0.9
2014-Sep-20 00:33N 37°55' W 122°25'8 8.3
2014-Sep-19 23:33N 37°46' W 122°23'0 0.0
2014-Sep-19 10:33N 37°46' W 122°23'8 7.9
2014-Sep-19 09:33N 37°54' W 122°26'9 8.5
2014-Sep-19 08:28N 38°03' W 122°21'6 2.1
2014-Sep-19 05:27N 38°04' W 122°13'0 0.0
2014-Sep-18 04:29N 38°03' W 122°13'12 6.2
2014-Sep-18 02:33N 37°58' W 122°26'9 9.3
2014-Sep-18 01:33N 37°49' W 122°23'2 2.5
2014-Sep-18 00:33N 37°46' W 122°23'  

Dump ship's entire track history